Search this site

789days since
Valentia Sprint

726days since
Club Race

SuperSprint #1 Duathlon 2012

 Result for SuperSprint # 1 2012 - Duathlon.
Distance :- Run 2km , Bike 14.2km , Run 2km.
 
Name Run1 T1 Bike T2 Run2 Finish
1 David Fagan 00:07:21 00:00:46 00:22:21 00:00:46 00:07:46 00:39:00
2 Michael Brabazon 00:06:44 00:00:56 00:25:28 00:00:56 00:07:11 00:41:15
3 Eoin  Clarke00:07:15 00:00:34 00:25:06 00:00:34 00:08:13 00:41:42
4 John Dillon 00:07:11 00:00:37 00:25:09 00:00:37 00:08:21 00:41:55
5 Micky Dan Murtagh 00:07:49 00:00:44 00:24:27 00:00:44 00:08:28 00:42:12
6 Enda Mimnagh 00:07:52 00:00:34 00:24:55 00:00:34 00:08:56 00:42:51
7 Paul Crowley 00:07:56 00:00:49 00:24:31 00:00:49 00:09:03 00:43:08
8 Mark  McCann 00:07:08 00:00:43 00:26:54 00:00:43 00:07:52 00:43:20
9 Gerry O'Doherty 00:07:32 00:00:40 00:26:29 00:00:40 00:08:04 00:43:25
10 Aiday  Daly 00:08:31 00:00:45 00:24:24 00:00:45 00:09:12 00:43:37
11 Doug  Bates 00:08:33 00:00:25 00:24:43 00:00:25 00:09:44 00:43:50
12 John O'Reilly 00:07:42 00:00:38 00:27:20 00:00:38 00:08:20 00:44:38
13 Paula Murray 00:08:28 00:00:38 00:25:54 00:00:38 00:09:09 00:44:47
14 Barry Leonard 00:08:35 00:01:01 00:25:55 00:01:01 00:08:19 00:44:51
15 Garrett O'Brien 00:08:37 00:00:44 00:25:45 00:00:44 00:09:07 00:44:57
16 Sean Gaffney 00:08:50 00:00:48 00:25:13 00:00:48 00:09:26 00:45:05
17 James Cribbin 00:08:46 00:00:42 00:25:43 00:00:42 00:09:28 00:45:21
18 James Carton 00:07:58 00:00:46 00:26:54 00:00:46 00:09:13 00:45:37
19 Dermot Berry 00:08:22 00:00:36 00:27:12 00:00:36 00:08:56 00:45:42
20 Joe Kenny 00:08:32 00:00:47 00:28:02 00:00:47 00:09:08 00:47:16
21 David Kennedy 00:08:53 00:00:44 00:27:43 00:00:44 00:09:14 00:47:18
22 Enda Flynn 00:08:15 00:00:57 00:26:24 00:00:57 00:11:42 00:48:15
23 Steve Noughton 00:08:04 00:00:55 00:29:49 00:00:55 00:08:58 00:48:41
24 Nicholas McCabe 00:09:21 00:01:20 00:26:27 00:01:20 00:10:24 00:48:52
25 Vera McCool 00:09:02 00:00:43 00:28:53 00:00:43 00:09:50 00:49:11
26 Gerard Flynn 00:09:26 00:00:48 00:28:16 00:00:48 00:09:54 00:49:12
27 Dermot Murray 00:09:28 00:00:39 00:27:09 00:00:39 00:11:28 00:49:23
28 Tom Shaw 00:10:20 00:00:18 00:28:07 00:00:18 00:10:34 00:49:37
29 Lorcan Sleator 00:08:39 00:01:29 00:29:19 00:01:29 00:09:12 00:50:08
30 Sharon  Bates 00:09:13 00:00:39 00:29:52 00:00:39 00:09:55 00:50:18
31 Murina Walsh 00:09:31 00:01:00 00:28:48 00:01:00 00:10:22 00:50:41
32 Eva McMorrow 00:09:02 00:01:00 00:29:46 00:01:00 00:10:10 00:50:58
33 Danny Mulvihill 00:09:19 00:01:23 00:28:53 00:01:23 00:10:04 00:51:02
34 Teresa  Greene 00:09:16 00:01:17 00:30:35 00:01:17 00:09:49 00:52:14
35 Cathy Byrne 00:10:37 00:00:37 00:29:43 00:00:37 00:12:12 00:53:46
36 Emer Fiztpatrick 00:10:16 00:01:09 00:30:47 00:01:09 00:11:44 00:55:05
37 Linda O'Driscoll 00:09:42 00:01:18 00:32:22 00:01:18 00:10:26 00:55:06
38 Leo  Shiel 00:10:04 00:00:47 00:31:27 00:00:47 00:12:13 00:55:18
39 Pat  O'Sullivan 00:09:45 00:01:40 00:30:33 00:01:40 00:11:46 00:55:24
40 John Raleigh 00:09:04 00:02:54 00:30:25 00:02:54 00:10:12 00:55:29
41 Leonard O'Mahony 00:10:40 00:01:34 00:29:54 00:01:34 00:11:53 00:55:35
42 Stephen Olwell 00:09:11 00:00:37 00:34:16 00:00:37 00:11:26 00:56:07
43 Deirdre Raleigh 00:09:51 00:01:55 00:31:36 00:01:55 00:10:58 00:56:15
44 Kevin McCormack 00:10:53 00:01:28 00:30:37 00:01:28 00:12:33 00:56:59
45 Eric Bates 00:10:19 00:01:10 00:31:53 00:01:10 00:12:47 00:57:19
46 Caroline Walsh 00:11:47 00:01:37 00:30:06 00:01:37 00:12:27 00:57:34
47 Irene Connaughton 00:11:49 00:01:37 00:30:04 00:01:37 00:12:27 00:57:34
48 Olivia Mullelly 00:11:19 00:01:46 00:34:03 00:01:46 00:11:49 01:00:43
49 Micheala  Vonstein 00:12:25 00:01:39 00:33:48 00:01:39 00:13:43 01:03:14
50 Tom Duffy 00:00:00 00:01:38 00:49:26 00:01:38 00:16:59 01:09:41
 
Run 1 Time : 2km
 
Name Run1 T1 Bike T2 Run2 Finish
2 Michael Brabazon 00:06:44 00:00:56 00:25:28 00:00:56 00:07:11 00:41:15
8 Mark  McCann 00:07:08 00:00:43 00:26:54 00:00:43 00:07:52 00:43:20
4 John Dillon 00:07:11 00:00:37 00:25:09 00:00:37 00:08:21 00:41:55
3 Eoin  Clarke 00:07:15 00:00:34 00:25:06 00:00:34 00:08:13 00:41:42
1 David Fagan 00:07:21 00:00:46 00:22:21 00:00:46 00:07:46 00:39:00
9 Gerry O'Doherty 00:07:32 00:00:40 00:26:29 00:00:40 00:08:04 00:43:25
12 John O'Reilly 00:07:42 00:00:38 00:27:20 00:00:38 00:08:20 00:44:38
5 Micky Dan Murtagh 00:07:49 00:00:44 00:24:27 00:00:44 00:08:28 00:42:12
6 Enda Mimnagh 00:07:52 00:00:34 00:24:55 00:00:34 00:08:56 00:42:51
7 Paul Crowley 00:07:56 00:00:49 00:24:31 00:00:49 00:09:03 00:43:08
18 James Carton 00:07:58 00:00:46 00:26:54 00:00:46 00:09:13 00:45:37
23 Steve Noughton 00:08:04 00:00:55 00:29:49 00:00:55 00:08:58 00:48:41
22 Enda Flynn 00:08:15 00:00:57 00:26:24 00:00:57 00:11:42 00:48:15
19 Dermot Berry 00:08:22 00:00:36 00:27:12 00:00:36 00:08:56 00:45:42
13 Paula Murray 00:08:28 00:00:38 00:25:54 00:00:38 00:09:09 00:44:47
10 Aiday  Daly 00:08:31 00:00:45 00:24:24 00:00:45 00:09:12 00:43:37
20 Joe Kenny 00:08:32 00:00:47 00:28:02 00:00:47 00:09:08 00:47:16
11 Doug  Bates 00:08:33 00:00:25 00:24:43 00:00:25 00:09:44 00:43:50
14 Barry Leonard 00:08:35 00:01:01 00:25:55 00:01:01 00:08:19 00:44:51
15 Garrett O'Brien 00:08:37 00:00:44 00:25:45 00:00:44 00:09:07 00:44:57
29 Lorcan Sleator 00:08:39 00:01:29 00:29:19 00:01:29 00:09:12 00:50:08
17 James Cribbin 00:08:46 00:00:42 00:25:43 00:00:42 00:09:28 00:45:21
16 Sean Gaffney 00:08:50 00:00:48 00:25:13 00:00:48 00:09:26 00:45:05
21 David Kennedy 00:08:53 00:00:44 00:27:43 00:00:44 00:09:14 00:47:18
25 Vera McCool 00:09:02 00:00:43 00:28:53 00:00:43 00:09:50 00:49:11
32 Eva McMorrow 00:09:02 00:01:00 00:29:46 00:01:00 00:10:10 00:50:58
40 John Raleigh 00:09:04 00:02:54 00:30:25 00:02:54 00:10:12 00:55:29
42 Stephen Olwell 00:09:11 00:00:37 00:34:16 00:00:37 00:11:26 00:56:07
30 Sharon  Bates 00:09:13 00:00:39 00:29:52 00:00:39 00:09:55 00:50:18
34 Teresa  Greene 00:09:16 00:01:17 00:30:35 00:01:17 00:09:49 00:52:14
33 Danny Mulvihill 00:09:19 00:01:23 00:28:53 00:01:23 00:10:04 00:51:02
24 Nicholas McCabe 00:09:21 00:01:20 00:26:27 00:01:20 00:10:24 00:48:52
26 Gerard Flynn 00:09:26 00:00:48 00:28:16 00:00:48 00:09:54 00:49:12
27 Dermot Murray 00:09:28 00:00:39 00:27:09 00:00:39 00:11:28 00:49:23
31 Murina Walsh 00:09:31 00:01:00 00:28:48 00:01:00 00:10:22 00:50:41
37 Linda O'Driscoll 00:09:42 00:01:18 00:32:22 00:01:18 00:10:26 00:55:06
39 Pat  O'Sullivan 00:09:45 00:01:40 00:30:33 00:01:40 00:11:46 00:55:24
43 Deirdre Raleigh 00:09:51 00:01:55 00:31:36 00:01:55 00:10:58 00:56:15
38 Leo  Shiel 00:10:04 00:00:47 00:31:27 00:00:47 00:12:13 00:55:18
36 Emer Fiztpatrick 00:10:16 00:01:09 00:30:47 00:01:09 00:11:44 00:55:05
45 Eric Bates 00:10:19 00:01:10 00:31:53 00:01:10 00:12:47 00:57:19
28 Tom Shaw 00:10:20 00:00:18 00:28:07 00:00:18 00:10:34 00:49:37
35 Cathy Byrne 00:10:37 00:00:37 00:29:43 00:00:37 00:12:12 00:53:46
41 Leonard O'Mahony 00:10:40 00:01:34 00:29:54 00:01:34 00:11:53 00:55:35
44 Kevin McCormack 00:10:53 00:01:28 00:30:37 00:01:28 00:12:33 00:56:59
48 Olivia Mullelly 00:11:19 00:01:46 00:34:03 00:01:46 00:11:49 01:00:43
46 Caroline Walsh 00:11:47 00:01:37 00:30:06 00:01:37 00:12:27 00:57:34
47 Irene Connaughton 00:11:49 00:01:37 00:30:04 00:01:37 00:12:27 00:57:34
49 Micheala  Vonstein 00:12:25 00:01:39 00:33:48 00:01:39 00:13:43 01:03:14
 
Bike Time : 14.2km
 
Name Bike Speed Km/hr
1 David Fagan 00:22:21 38.12
2 Aiday  Daly 00:24:24 34.92
3 Micky Dan Murtagh 00:24:27 34.85
4 Paul Crowley 00:24:31 34.75
5 Doug  Bates 00:24:43 34.47
6 Enda Mimnagh 00:24:55 34.19
7 Eoin  Clarke 00:25:06 33.94
8 John Dillon 00:25:09 33.88
9 Sean Gaffney 00:25:13 33.79
10 Michael Brabazon 00:25:28 33.46
11 James Cribbin 00:25:43 33.13
12 Garrett O'Brien 00:25:45 33.09
13 Paula Murray 00:25:54 32.90
14 Barry Leonard 00:25:55 32.87
15 Enda Flynn 00:26:24 32.27
16 Nicholas McCabe 00:26:27 32.21
17 Gerry O'Doherty 00:26:29 32.17
18 Mark  McCann 00:26:54 31.67
19 James Carton 00:26:54 31.67
20 Dermot Murray 00:27:09 31.38
21 Dermot Berry 00:27:12 31.32
22 John O'Reilly 00:27:20 31.17
23 David Kennedy 00:27:43 30.74
24 Joe Kenny 00:28:02 30.39
25 Tom Shaw 00:28:07 30.30
26 Gerard Flynn 00:28:16 30.14
27 Murina Walsh 00:28:48 29.58
28 Vera McCool 00:28:53 29.50
29 Danny Mulvihill 00:28:53 29.50
30 Lorcan Sleator 00:29:19 29.06
31 Cathy Byrne 00:29:43 28.67
32 Eva McMorrow 00:29:46 28.62
33 Steve Noughton 00:29:49 28.57
34 Sharon  Bates 00:29:52 28.53
35 Leonard O'Mahony 00:29:54 28.50
36 Irene Connaughton 00:30:04 28.34
37 Caroline Walsh 00:30:06 28.31
38 John Raleigh 00:30:25 28.01
39 Pat  O'Sullivan 00:30:33 27.89
40 Teresa  Greene 00:30:35 27.86
41 Kevin McCormack 00:30:37 27.83
42 Emer Fiztpatrick 00:30:47 27.68
43 Leo  Shiel 00:31:27 27.09
44 Deirdre Raleigh 00:31:36 26.96
45 Eric Bates 00:31:53 26.72
46 Linda O'Driscoll 00:32:22 26.32
47 Micheala  Vonstein 00:33:48 25.21
48 Olivia Mullelly 00:34:03 25.02
49 Stephen Olwell 00:34:16 24.86
50 Tom Duffy 00:49:26 17.24
 
 
T2 Time  
 
Name T2
1 Doug  Bates 00:00:25
2 Enda Mimnagh 00:00:34
3 Eoin  Clarke 00:00:34
4 Dermot Berry 00:00:36
5 Stephen Olwell 00:00:37
6 John Dillon 00:00:37
7 Cathy Byrne 00:00:37
8 John O'Reilly 00:00:38
9 Paula Murray 00:00:38
10 Sharon  Bates 00:00:39
11 Dermot Murray 00:00:39
12 Gerry O'Doherty 00:00:40
13 James Cribbin 00:00:42
14 Mark  McCann 00:00:43
15 Vera McCool 00:00:43
16 Garrett O'Brien 00:00:44
17 Micky Dan Murtagh 00:00:44
18 David Kennedy 00:00:44
19 Aiday  Daly 00:00:45
20 James Carton 00:00:46
21 David Fagan 00:00:46
22 Joe Kenny 00:00:47
23 Leo  Shiel 00:00:47
24 Gerard Flynn 00:00:48
25 Sean Gaffney 00:00:48
26 Paul Crowley 00:00:49
27 Steve Noughton 00:00:55
28 Michael Gibson Brabazon 00:00:56
29 Enda Flynn 00:00:57
30 Murina Walsh 00:01:00
31 Eva McMorrow 00:01:00
32 Barry Leonard 00:01:01
33 Emer Fiztpatrick 00:01:09
34 Eric Bates 00:01:10
35 Teresa  Greene 00:01:17
36 Linda O'Driscoll 00:01:18
37 Nicholas McCabe 00:01:20
38 Danny Mulvihill 00:01:23
39 Kevin McCormack 00:01:28
40 Lorcan Sleator 00:01:29
41 Leonard O'Mahony 00:01:34
42 Caroline Walsh 00:01:37
43 Irene Connaughton 00:01:37
44 Tom Duffy 00:01:38
45 Micheala  Vonstein 00:01:39
46 Pat  O'Sullivan 00:01:40
47 Olivia Mullelly 00:01:46
48 Deirdre Raleigh 00:01:55
49 John Raleigh 00:02:54
 
Run 2 Time : 2km
 
Name Run2
1 Michael Brabazon 00:07:11
2 David Fagan 00:07:46
3 Mark  McCann 00:07:52
4 Gerry O'Doherty 00:08:04
5 Eoin  Clarke 00:08:13
6 Barry Leonard 00:08:19
7 John O'Reilly 00:08:20
8 John Dillon 00:08:21
9 Micky Dan Murtagh 00:08:28
10 Dermot Berry 00:08:56
11 Enda Mimnagh 00:08:56
12 Steve Noughton 00:08:58
13 Paul Crowley 00:09:03
14 Garrett O'Brien 00:09:07
15 Joe Kenny 00:09:08
16 Paula Murray 00:09:09
17 Lorcan Sleator 00:09:12
18 Aiday  Daly 00:09:12
19 James Carton 00:09:13
20 David Kennedy 00:09:14
21 Sean Gaffney 00:09:26
22 James Cribbin 00:09:28
23 Doug  Bates 00:09:44
24 Teresa  Greene 00:09:49
25 Vera McCool 00:09:50
26 Gerard Flynn 00:09:54
27 Sharon  Bates 00:09:55
28 Danny Mulvihill 00:10:04
29 Eva McMorrow 00:10:10
30 John Raleigh 00:10:12
31 Murina Walsh 00:10:22
32 Nicholas McCabe 00:10:24
33 Linda O'Driscoll 00:10:26
34 Tom Shaw 00:10:34
35 Deirdre Raleigh 00:10:58
36 Stephen Olwell 00:11:26
37 Dermot Murray 00:11:28
38 Enda Flynn 00:11:42
39 Emer Fiztpatrick 00:11:44
40 Pat  O'Sullivan 00:11:46
41 Olivia Mullelly 00:11:49
42 Leonard O'Mahony 00:11:53
43 Cathy Byrne 00:12:12
44 Leo  Shiel 00:12:13
45 Caroline Walsh 00:12:27
46 Irene Connaughton 00:12:27
47 Kevin McCormack 00:12:33
48 Eric Bates 00:12:47
49 Micheala  Vonstein 00:13:43
50 Tom Duffy 00:16:59
 
 
 
 
 
Comments